LZB807 LBSF-LGAV
Flight info
| Callsign | LZB807 |
|---|---|
| Flight time | 0h 52m |
| Altitude | 35000 |
| Route | OMENO DCT NIKTI UY505 PEREN UV652 SKP UM749 SIGFO DCT XORKI |
| Aircraft | A320/M-SDE3FGHIRWY/LB1 |
Departure
| Time | 2026-05-07 14:15 |
|---|---|
| Airport | Sofia Airport (LBSF) |
Arrival
| Time | 2026-05-07 15:07 |
|---|---|
| Airport | Athens Eleftherios Venizelos International Airport (LGAV) |
| Time | Latitude | Longitude | Altitude | Speed | Heading |
|---|---|---|---|---|---|
| 2026-05-07 13:46 | 42.68966 | 23.41295 | 1756 ft | 0 kts | 141° |
| 2026-05-07 14:03 | 42.68970 | 23.41291 | 1757 ft | 2 kts | 140° |
| 2026-05-07 14:03 | 42.68984 | 23.41274 | 1757 ft | 3 kts | 128° |
| 2026-05-07 14:04 | 42.68995 | 23.41251 | 1757 ft | 3 kts | 114° |
| 2026-05-07 14:04 | 42.69001 | 23.41225 | 1757 ft | 3 kts | 94° |
| 2026-05-07 14:04 | 42.69000 | 23.41200 | 1757 ft | 3 kts | 63° |
| 2026-05-07 14:04 | 42.68995 | 23.41190 | 1757 ft | 0 kts | 51° |
| 2026-05-07 14:06 | 42.68996 | 23.41190 | 1756 ft | 0 kts | 51° |
| 2026-05-07 14:06 | 42.69006 | 23.41206 | 1756 ft | 4 kts | 45° |
| 2026-05-07 14:07 | 42.69038 | 23.41227 | 1756 ft | 6 kts | 355° |
| 2026-05-07 14:07 | 42.69089 | 23.41203 | 1756 ft | 9 kts | 342° |
| 2026-05-07 14:07 | 42.69149 | 23.41178 | 1756 ft | 9 kts | 343° |
| 2026-05-07 14:07 | 42.69207 | 23.41156 | 1756 ft | 10 kts | 347° |
| 2026-05-07 14:08 | 42.69287 | 23.41163 | 1756 ft | 13 kts | 13° |
| 2026-05-07 14:08 | 42.69370 | 23.41189 | 1756 ft | 10 kts | 12° |
| 2026-05-07 14:08 | 42.69435 | 23.41208 | 1756 ft | 9 kts | 8° |
| 2026-05-07 14:08 | 42.69483 | 23.41250 | 1756 ft | 8 kts | 73° |
| 2026-05-07 14:09 | 42.69483 | 23.41325 | 1756 ft | 8 kts | 94° |
| 2026-05-07 14:09 | 42.69478 | 23.41398 | 1756 ft | 8 kts | 95° |
| 2026-05-07 14:09 | 42.69471 | 23.41496 | 1756 ft | 13 kts | 95° |
| 2026-05-07 14:09 | 42.69464 | 23.41631 | 1756 ft | 14 kts | 94° |
| 2026-05-07 14:10 | 42.69456 | 23.41769 | 1756 ft | 15 kts | 94° |
| 2026-05-07 14:10 | 42.69448 | 23.41910 | 1756 ft | 15 kts | 94° |
| 2026-05-07 14:10 | 42.69439 | 23.42056 | 1756 ft | 16 kts | 94° |
| 2026-05-07 14:10 | 42.69430 | 23.42205 | 1756 ft | 16 kts | 95° |
| 2026-05-07 14:11 | 42.69420 | 23.42358 | 1756 ft | 16 kts | 94° |
| 2026-05-07 14:11 | 42.69411 | 23.42517 | 1756 ft | 17 kts | 94° |
| 2026-05-07 14:11 | 42.69402 | 23.42679 | 1756 ft | 18 kts | 95° |
| 2026-05-07 14:11 | 42.69395 | 23.42790 | 1756 ft | 18 kts | 95° |
| 2026-05-07 14:12 | 42.69385 | 23.42960 | 1756 ft | 18 kts | 95° |
| 2026-05-07 14:12 | 42.69374 | 23.43136 | 1756 ft | 19 kts | 95° |
| 2026-05-07 14:12 | 42.69364 | 23.43315 | 1756 ft | 19 kts | 95° |
| 2026-05-07 14:12 | 42.69353 | 23.43501 | 1756 ft | 20 kts | 94° |
| 2026-05-07 14:13 | 42.69342 | 23.43691 | 1756 ft | 20 kts | 94° |
| 2026-05-07 14:13 | 42.69334 | 23.43882 | 1756 ft | 18 kts | 77° |
| 2026-05-07 14:13 | 42.69438 | 23.43954 | 1756 ft | 18 kts | 6° |
| 2026-05-07 14:13 | 42.69490 | 23.43961 | 1756 ft | 6 kts | 6° |
| 2026-05-07 14:14 | 42.69518 | 23.43947 | 1756 ft | 4 kts | 268° |
| 2026-05-07 14:14 | 42.69518 | 23.43865 | 1756 ft | 20 kts | 272° |
| 2026-05-07 14:14 | 42.69557 | 23.43233 | 1757 ft | 110 kts | 275° |
| 2026-05-07 14:14 | 42.69638 | 23.41871 | 1798 ft | 171 kts | 275° |
| 2026-05-07 14:15 | 42.69724 | 23.40265 | 2607 ft | 170 kts | 273° |
| 2026-05-07 14:15 | 42.69809 | 23.38706 | 3549 ft | 160 kts | 281° |
| 2026-05-07 14:15 | 42.70369 | 23.37410 | 4215 ft | 161 kts | 320° |
| 2026-05-07 14:15 | 42.71228 | 23.36446 | 4810 ft | 163 kts | 316° |
| 2026-05-07 14:16 | 42.72146 | 23.35509 | 5369 ft | 169 kts | 330° |
| 2026-05-07 14:16 | 42.73308 | 23.35073 | 5798 ft | 184 kts | 351° |
| 2026-05-07 14:16 | 42.74663 | 23.34922 | 6131 ft | 205 kts | 355° |
| 2026-05-07 14:16 | 42.76141 | 23.35243 | 6429 ft | 231 kts | 26° |
| 2026-05-07 14:17 | 42.77380 | 23.36752 | 6816 ft | 252 kts | 60° |
| 2026-05-07 14:17 | 42.77885 | 23.39074 | 7382 ft | 265 kts | 89° |
| 2026-05-07 14:17 | 42.77714 | 23.41620 | 8053 ft | 277 kts | 107° |
| 2026-05-07 14:17 | 42.76818 | 23.43942 | 8743 ft | 282 kts | 135° |
| 2026-05-07 14:18 | 42.75212 | 23.45430 | 9591 ft | 281 kts | 159° |
| 2026-05-07 14:18 | 42.73366 | 23.46319 | 10510 ft | 284 kts | 163° |
| 2026-05-07 14:18 | 42.71458 | 23.47195 | 11177 ft | 297 kts | 163° |
| 2026-05-07 14:18 | 42.69456 | 23.48214 | 11603 ft | 317 kts | 160° |
| 2026-05-07 14:19 | 42.67355 | 23.49384 | 12044 ft | 335 kts | 159° |
| 2026-05-07 14:19 | 42.65159 | 23.50655 | 12514 ft | 350 kts | 159° |
| 2026-05-07 14:19 | 42.62818 | 23.52010 | 13096 ft | 360 kts | 159° |
| 2026-05-07 14:19 | 42.60523 | 23.53321 | 13803 ft | 365 kts | 159° |
| 2026-05-07 14:20 | 42.58167 | 23.54652 | 14513 ft | 369 kts | 159° |
| 2026-05-07 14:20 | 42.55719 | 23.56027 | 15219 ft | 373 kts | 159° |
| 2026-05-07 14:20 | 42.53300 | 23.57392 | 15829 ft | 379 kts | 159° |
| 2026-05-07 14:20 | 42.50851 | 23.58774 | 16450 ft | 384 kts | 159° |
| 2026-05-07 14:21 | 42.48368 | 23.60173 | 17070 ft | 388 kts | 159° |
| 2026-05-07 14:21 | 42.45871 | 23.61580 | 17677 ft | 391 kts | 159° |
| 2026-05-07 14:21 | 42.43345 | 23.63004 | 18268 ft | 395 kts | 159° |
| 2026-05-07 14:21 | 42.40797 | 23.64441 | 18844 ft | 398 kts | 159° |
| 2026-05-07 14:22 | 42.38228 | 23.65882 | 19400 ft | 402 kts | 159° |
| 2026-05-07 14:22 | 42.35632 | 23.67334 | 19941 ft | 405 kts | 159° |
| 2026-05-07 14:22 | 42.32999 | 23.68808 | 20473 ft | 408 kts | 159° |
| 2026-05-07 14:22 | 42.30382 | 23.70273 | 20979 ft | 412 kts | 159° |
| 2026-05-07 14:23 | 42.27727 | 23.71765 | 21460 ft | 416 kts | 160° |
| 2026-05-07 14:23 | 42.25037 | 23.73268 | 21837 ft | 422 kts | 160° |
| 2026-05-07 14:23 | 42.22307 | 23.74790 | 22282 ft | 426 kts | 160° |
| 2026-05-07 14:23 | 42.19562 | 23.76323 | 22738 ft | 429 kts | 160° |
| 2026-05-07 14:24 | 42.16758 | 23.77887 | 23185 ft | 432 kts | 160° |
| 2026-05-07 14:24 | 42.13932 | 23.79456 | 23623 ft | 435 kts | 160° |
| 2026-05-07 14:24 | 42.11124 | 23.81013 | 24048 ft | 438 kts | 160° |
| 2026-05-07 14:24 | 42.08301 | 23.82586 | 24463 ft | 440 kts | 160° |
| 2026-05-07 14:25 | 42.05466 | 23.84169 | 24862 ft | 443 kts | 160° |
| 2026-05-07 14:25 | 42.02607 | 23.85756 | 25261 ft | 445 kts | 160° |
| 2026-05-07 14:25 | 41.99736 | 23.87347 | 25649 ft | 448 kts | 160° |
| 2026-05-07 14:25 | 41.96847 | 23.88945 | 26025 ft | 450 kts | 160° |
| 2026-05-07 14:26 | 41.93944 | 23.90551 | 26397 ft | 452 kts | 160° |
| 2026-05-07 14:26 | 41.91027 | 23.92165 | 26757 ft | 454 kts | 160° |
| 2026-05-07 14:26 | 41.88099 | 23.93785 | 27105 ft | 457 kts | 160° |
| 2026-05-07 14:26 | 41.85158 | 23.95414 | 27559 ft | 455 kts | 161° |
| 2026-05-07 14:27 | 41.82242 | 23.97015 | 28042 ft | 453 kts | 161° |
| 2026-05-07 14:27 | 41.79319 | 23.98619 | 28387 ft | 454 kts | 161° |
| 2026-05-07 14:27 | 41.76386 | 24.00226 | 28696 ft | 456 kts | 161° |
| 2026-05-07 14:27 | 41.73441 | 24.01838 | 28967 ft | 459 kts | 161° |
| 2026-05-07 14:28 | 41.70485 | 24.03463 | 29242 ft | 461 kts | 161° |
| 2026-05-07 14:28 | 41.67515 | 24.05098 | 29518 ft | 462 kts | 161° |
| 2026-05-07 14:28 | 41.64545 | 24.06726 | 29904 ft | 461 kts | 161° |
| 2026-05-07 14:28 | 41.61574 | 24.08354 | 30275 ft | 460 kts | 161° |
| 2026-05-07 14:29 | 41.58618 | 24.09975 | 30621 ft | 459 kts | 161° |
| 2026-05-07 14:29 | 41.55600 | 24.11282 | 30971 ft | 454 kts | 171° |
| 2026-05-07 14:29 | 41.52492 | 24.11811 | 31302 ft | 448 kts | 182° |
| 2026-05-07 14:29 | 41.49404 | 24.11527 | 31633 ft | 444 kts | 190° |
| 2026-05-07 14:30 | 41.46352 | 24.10951 | 31964 ft | 443 kts | 192° |
| 2026-05-07 14:30 | 41.43311 | 24.10322 | 32318 ft | 442 kts | 193° |
| 2026-05-07 14:30 | 41.40263 | 24.09734 | 32570 ft | 444 kts | 192° |
| 2026-05-07 14:30 | 41.37198 | 24.09214 | 32896 ft | 444 kts | 191° |
| 2026-05-07 14:31 | 41.34134 | 24.08744 | 33221 ft | 443 kts | 191° |
| 2026-05-07 14:31 | 41.31070 | 24.08279 | 33543 ft | 442 kts | 191° |
| 2026-05-07 14:31 | 41.28020 | 24.07791 | 33851 ft | 441 kts | 191° |
| 2026-05-07 14:31 | 41.24971 | 24.07280 | 34155 ft | 440 kts | 191° |
| 2026-05-07 14:32 | 41.21921 | 24.06758 | 34436 ft | 440 kts | 192° |
| 2026-05-07 14:32 | 41.18855 | 24.06239 | 34688 ft | 440 kts | 191° |
| 2026-05-07 14:32 | 41.15816 | 24.05736 | 34954 ft | 440 kts | 191° |
| 2026-05-07 14:32 | 41.12777 | 24.05242 | 35104 ft | 440 kts | 191° |
| 2026-05-07 14:33 | 41.09743 | 24.04748 | 35099 ft | 439 kts | 191° |
| 2026-05-07 14:33 | 41.03674 | 24.03753 | 35100 ft | 439 kts | 191° |
| 2026-05-07 14:34 | 40.97607 | 24.02756 | 35101 ft | 440 kts | 191° |
| 2026-05-07 14:34 | 40.91521 | 24.01806 | 35101 ft | 440 kts | 191° |
| 2026-05-07 14:35 | 40.85439 | 24.00855 | 35100 ft | 440 kts | 191° |
| 2026-05-07 14:35 | 40.79359 | 23.99887 | 35101 ft | 440 kts | 191° |
| 2026-05-07 14:36 | 40.73293 | 23.98931 | 35148 ft | 438 kts | 190° |
| 2026-05-07 14:36 | 40.67261 | 23.97986 | 35146 ft | 435 kts | 190° |
| 2026-05-07 14:37 | 40.61255 | 23.97043 | 35126 ft | 434 kts | 190° |
| 2026-05-07 14:37 | 40.52393 | 23.94975 | 35064 ft | 431 kts | 194° |
| 2026-05-07 14:38 | 40.46512 | 23.93450 | 35063 ft | 431 kts | 194° |
| 2026-05-07 14:38 | 40.40615 | 23.91969 | 35065 ft | 432 kts | 194° |
| 2026-05-07 14:39 | 40.34687 | 23.90481 | 35068 ft | 434 kts | 194° |
| 2026-05-07 14:39 | 40.28762 | 23.88985 | 35067 ft | 435 kts | 194° |
| 2026-05-07 14:40 | 40.22805 | 23.87489 | 35064 ft | 437 kts | 194° |
| 2026-05-07 14:40 | 40.16833 | 23.85992 | 35070 ft | 438 kts | 194° |
| 2026-05-07 14:41 | 40.10851 | 23.84495 | 35117 ft | 437 kts | 194° |
| 2026-05-07 14:41 | 40.05886 | 23.83255 | 35145 ft | 437 kts | 194° |
| 2026-05-07 14:42 | 39.99904 | 23.81762 | 35155 ft | 438 kts | 194° |
| 2026-05-07 14:42 | 39.93881 | 23.80261 | 35141 ft | 438 kts | 194° |
| 2026-05-07 14:43 | 39.87889 | 23.78773 | 35111 ft | 438 kts | 194° |
| 2026-05-07 14:43 | 39.81897 | 23.77285 | 35075 ft | 439 kts | 194° |
| 2026-05-07 14:44 | 39.75933 | 23.75810 | 35060 ft | 439 kts | 194° |
| 2026-05-07 14:44 | 39.69931 | 23.74324 | 35055 ft | 439 kts | 194° |
| 2026-05-07 14:45 | 39.63922 | 23.72841 | 35053 ft | 440 kts | 194° |
| 2026-05-07 14:45 | 39.57897 | 23.71359 | 35056 ft | 441 kts | 194° |
| 2026-05-07 14:46 | 39.51873 | 23.69874 | 35053 ft | 440 kts | 194° |
| 2026-05-07 14:46 | 39.48882 | 23.69141 | 34739 ft | 435 kts | 194° |
| 2026-05-07 14:46 | 39.45925 | 23.68419 | 34058 ft | 432 kts | 194° |
| 2026-05-07 14:47 | 39.42959 | 23.67691 | 33162 ft | 435 kts | 195° |
| 2026-05-07 14:47 | 39.39974 | 23.66955 | 32229 ft | 438 kts | 195° |
| 2026-05-07 14:47 | 39.36998 | 23.66221 | 31274 ft | 442 kts | 193° |
| 2026-05-07 14:47 | 39.33964 | 23.65479 | 30274 ft | 445 kts | 193° |
| 2026-05-07 14:48 | 39.30905 | 23.64737 | 29231 ft | 448 kts | 193° |
| 2026-05-07 14:48 | 39.27834 | 23.63992 | 28187 ft | 451 kts | 193° |
| 2026-05-07 14:48 | 39.24759 | 23.63243 | 27368 ft | 448 kts | 193° |
| 2026-05-07 14:48 | 39.21710 | 23.62501 | 26616 ft | 443 kts | 193° |
| 2026-05-07 14:49 | 39.18690 | 23.61892 | 25976 ft | 437 kts | 188° |
| 2026-05-07 14:49 | 39.15621 | 23.61875 | 25248 ft | 435 kts | 179° |
| 2026-05-07 14:49 | 39.12621 | 23.62270 | 24501 ft | 431 kts | 176° |
| 2026-05-07 14:49 | 39.09663 | 23.62777 | 23748 ft | 427 kts | 175° |
| 2026-05-07 14:50 | 39.06768 | 23.63293 | 23021 ft | 423 kts | 176° |
| 2026-05-07 14:50 | 39.03825 | 23.63775 | 22296 ft | 419 kts | 176° |
| 2026-05-07 14:50 | 39.00943 | 23.64195 | 21600 ft | 414 kts | 177° |
| 2026-05-07 14:50 | 38.98094 | 23.64584 | 20915 ft | 410 kts | 178° |
| 2026-05-07 14:51 | 38.95309 | 23.64923 | 20272 ft | 404 kts | 180° |
| 2026-05-07 14:51 | 38.92527 | 23.64848 | 19614 ft | 396 kts | 188° |
| 2026-05-07 14:51 | 38.89811 | 23.64414 | 18961 ft | 391 kts | 191° |
| 2026-05-07 14:51 | 38.87134 | 23.63878 | 18314 ft | 387 kts | 192° |
| 2026-05-07 14:52 | 38.84489 | 23.63324 | 17675 ft | 384 kts | 192° |
| 2026-05-07 14:52 | 38.81863 | 23.62799 | 17048 ft | 380 kts | 192° |
| 2026-05-07 14:52 | 38.79256 | 23.62315 | 16432 ft | 377 kts | 191° |
| 2026-05-07 14:52 | 38.76668 | 23.61855 | 15827 ft | 374 kts | 191° |
| 2026-05-07 14:53 | 38.74103 | 23.61398 | 15229 ft | 371 kts | 192° |
| 2026-05-07 14:53 | 38.71561 | 23.60932 | 14628 ft | 368 kts | 191° |
| 2026-05-07 14:53 | 38.69017 | 23.60556 | 13907 ft | 370 kts | 183° |
| 2026-05-07 14:53 | 38.66462 | 23.61013 | 13380 ft | 374 kts | 165° |
| 2026-05-07 14:54 | 38.64133 | 23.62512 | 13115 ft | 378 kts | 146° |
| 2026-05-07 14:54 | 38.62088 | 23.64629 | 12882 ft | 378 kts | 141° |
| 2026-05-07 14:54 | 38.60123 | 23.66858 | 12634 ft | 377 kts | 140° |
| 2026-05-07 14:54 | 38.58170 | 23.69084 | 12388 ft | 376 kts | 140° |
| 2026-05-07 14:55 | 38.56192 | 23.71263 | 12139 ft | 374 kts | 141° |
| 2026-05-07 14:55 | 38.54194 | 23.73376 | 11891 ft | 373 kts | 142° |
| 2026-05-07 14:55 | 38.52158 | 23.75495 | 11597 ft | 372 kts | 142° |
| 2026-05-07 14:55 | 38.50158 | 23.77588 | 11072 ft | 371 kts | 142° |
| 2026-05-07 14:56 | 38.48178 | 23.79682 | 10529 ft | 368 kts | 141° |
| 2026-05-07 14:56 | 38.46245 | 23.81741 | 10273 ft | 354 kts | 141° |
| 2026-05-07 14:56 | 38.44399 | 23.83711 | 10144 ft | 337 kts | 141° |
| 2026-05-07 14:56 | 38.42639 | 23.85583 | 10015 ft | 322 kts | 142° |
| 2026-05-07 14:57 | 38.40952 | 23.87374 | 9878 ft | 309 kts | 142° |
| 2026-05-07 14:57 | 38.39336 | 23.89088 | 9726 ft | 296 kts | 142° |
| 2026-05-07 14:57 | 38.37755 | 23.90762 | 9319 ft | 294 kts | 142° |
| 2026-05-07 14:57 | 38.36183 | 23.92419 | 8825 ft | 295 kts | 142° |
| 2026-05-07 14:58 | 38.34609 | 23.94079 | 8380 ft | 293 kts | 142° |
| 2026-05-07 14:58 | 38.33048 | 23.95728 | 7945 ft | 291 kts | 142° |
| 2026-05-07 14:58 | 38.31499 | 23.97364 | 7503 ft | 288 kts | 142° |
| 2026-05-07 14:58 | 38.29960 | 23.98985 | 7106 ft | 284 kts | 142° |
| 2026-05-07 14:59 | 38.28461 | 24.00570 | 6739 ft | 279 kts | 142° |
| 2026-05-07 14:59 | 38.26972 | 24.02143 | 6253 ft | 278 kts | 142° |
| 2026-05-07 14:59 | 38.25488 | 24.03706 | 5803 ft | 276 kts | 142° |
| 2026-05-07 14:59 | 38.24019 | 24.05251 | 5386 ft | 272 kts | 142° |
| 2026-05-07 15:00 | 38.22573 | 24.06771 | 5040 ft | 266 kts | 142° |
| 2026-05-07 15:00 | 38.21185 | 24.08234 | 4899 ft | 252 kts | 142° |
| 2026-05-07 15:00 | 38.19878 | 24.09616 | 4798 ft | 237 kts | 142° |
| 2026-05-07 15:00 | 38.18640 | 24.10921 | 4642 ft | 227 kts | 143° |
| 2026-05-07 15:01 | 38.17418 | 24.12198 | 4215 ft | 229 kts | 143° |
| 2026-05-07 15:01 | 38.16185 | 24.13478 | 3866 ft | 228 kts | 144° |
| 2026-05-07 15:01 | 38.14805 | 24.14400 | 3537 ft | 225 kts | 168° |
| 2026-05-07 15:01 | 38.13272 | 24.14271 | 3478 ft | 225 kts | 201° |
| 2026-05-07 15:02 | 38.11970 | 24.13174 | 3500 ft | 226 kts | 218° |
| 2026-05-07 15:02 | 38.10789 | 24.11959 | 3491 ft | 210 kts | 217° |
| 2026-05-07 15:02 | 38.09673 | 24.10848 | 3487 ft | 199 kts | 216° |
| 2026-05-07 15:02 | 38.08582 | 24.09785 | 3473 ft | 198 kts | 216° |
| 2026-05-07 15:03 | 38.07490 | 24.08745 | 3296 ft | 194 kts | 215° |
| 2026-05-07 15:03 | 38.06418 | 24.07730 | 3072 ft | 190 kts | 216° |
| 2026-05-07 15:03 | 38.05376 | 24.06734 | 2837 ft | 186 kts | 216° |
| 2026-05-07 15:03 | 38.04353 | 24.05755 | 2615 ft | 181 kts | 216° |
| 2026-05-07 15:04 | 38.03361 | 24.04808 | 2373 ft | 177 kts | 215° |
| 2026-05-07 15:04 | 38.02388 | 24.03882 | 2131 ft | 173 kts | 215° |
| 2026-05-07 15:04 | 38.01438 | 24.02975 | 1899 ft | 169 kts | 215° |
| 2026-05-07 15:04 | 38.00512 | 24.02093 | 1674 ft | 163 kts | 215° |
| 2026-05-07 15:05 | 37.99641 | 24.01262 | 1470 ft | 150 kts | 216° |
| 2026-05-07 15:05 | 37.98844 | 24.00505 | 1282 ft | 137 kts | 217° |
| 2026-05-07 15:05 | 37.98110 | 23.99806 | 1072 ft | 128 kts | 218° |
| 2026-05-07 15:05 | 37.97411 | 23.99130 | 924 ft | 127 kts | 218° |
| 2026-05-07 15:06 | 37.96687 | 23.98450 | 756 ft | 131 kts | 218° |
| 2026-05-07 15:06 | 37.95971 | 23.97772 | 576 ft | 127 kts | 218° |
| 2026-05-07 15:06 | 37.95261 | 23.97093 | 403 ft | 127 kts | 218° |
| 2026-05-07 15:06 | 37.94558 | 23.96418 | 324 ft | 122 kts | 217° |
| 2026-05-07 15:07 | 37.94023 | 23.95912 | 322 ft | 52 kts | 216° |
| 2026-05-07 15:07 | 37.93874 | 23.95728 | 322 ft | 19 kts | 238° |
| 2026-05-07 15:07 | 37.93836 | 23.95645 | 322 ft | 8 kts | 244° |
| 2026-05-07 15:07 | 37.93815 | 23.95587 | 322 ft | 0 kts | 245° |
| 2026-05-07 15:08 | 37.93814 | 23.95585 | 322 ft | 1 kts | 245° |
| 2026-05-07 15:08 | 37.93811 | 23.95577 | 322 ft | 1 kts | 245° |
| 2026-05-07 15:08 | 37.93807 | 23.95564 | 322 ft | 2 kts | 245° |
| 2026-05-07 15:08 | 37.93801 | 23.95548 | 322 ft | 2 kts | 245° |
| 2026-05-07 15:09 | 37.93796 | 23.95532 | 322 ft | 2 kts | 246° |
| 2026-05-07 15:09 | 37.93795 | 23.95530 | 322 ft | 1 kts | 248° |
| 2026-05-07 15:09 | 37.93796 | 23.95520 | 322 ft | 4 kts | 285° |
| 2026-05-07 15:09 | 37.93822 | 23.95462 | 322 ft | 9 kts | 309° |
| 2026-05-07 15:10 | 37.93860 | 23.95399 | 322 ft | 9 kts | 300° |
| 2026-05-07 15:10 | 37.93874 | 23.95356 | 322 ft | 5 kts | 289° |
| 2026-05-07 15:10 | 37.93880 | 23.95300 | 322 ft | 7 kts | 263° |
| 2026-05-07 15:10 | 37.93863 | 23.95239 | 322 ft | 8 kts | 245° |
| 2026-05-07 15:11 | 37.93830 | 23.95184 | 322 ft | 8 kts | 238° |
| 2026-05-07 15:11 | 37.93840 | 23.95132 | 322 ft | 6 kts | 308° |
| 2026-05-07 15:11 | 37.93862 | 23.95096 | 322 ft | 5 kts | 307° |
| 2026-05-07 15:11 | 37.93865 | 23.95092 | 322 ft | 0 kts | 307° |
| 2026-05-07 15:12 | 37.93866 | 23.95089 | 322 ft | 0 kts | 307° |